sensor_id;sensor_type;location;lat;lon;timestamp;P1;durP1;ratioP1;P2;durP2;ratioP2
45344;SDS011;31078;48.304;11.896;2023-02-11T00:00:15;45.72;;;22.67;;
45344;SDS011;31078;48.304;11.896;2023-02-11T00:02:42;50.05;;;22.63;;
45344;SDS011;31078;48.304;11.896;2023-02-11T00:05:08;47.88;;;22.38;;
45344;SDS011;31078;48.304;11.896;2023-02-11T00:07:35;45.00;;;22.52;;
45344;SDS011;31078;48.304;11.896;2023-02-11T00:10:02;46.08;;;22.58;;
45344;SDS011;31078;48.304;11.896;2023-02-11T00:12:31;47.22;;;21.73;;
45344;SDS011;31078;48.304;11.896;2023-02-11T00:14:59;46.33;;;21.73;;
45344;SDS011;31078;48.304;11.896;2023-02-11T00:17:26;44.38;;;21.25;;
45344;SDS011;31078;48.304;11.896;2023-02-11T00:19:53;43.17;;;21.15;;
45344;SDS011;31078;48.304;11.896;2023-02-11T00:22:19;48.40;;;22.80;;
45344;SDS011;31078;48.304;11.896;2023-02-11T00:24:46;49.20;;;22.73;;
45344;SDS011;31078;48.304;11.896;2023-02-11T00:27:12;44.83;;;21.88;;
45344;SDS011;31078;48.304;11.896;2023-02-11T00:29:39;41.55;;;19.83;;
45344;SDS011;31078;48.304;11.896;2023-02-11T00:32:08;43.75;;;20.90;;
45344;SDS011;31078;48.304;11.896;2023-02-11T00:34:35;43.20;;;20.83;;
45344;SDS011;31078;48.304;11.896;2023-02-11T00:37:03;41.05;;;20.35;;
45344;SDS011;31078;48.304;11.896;2023-02-11T00:39:30;39.03;;;19.77;;
45344;SDS011;31078;48.304;11.896;2023-02-11T00:41:56;42.10;;;20.67;;
45344;SDS011;31078;48.304;11.896;2023-02-11T00:44:23;38.35;;;18.55;;
45344;SDS011;31078;48.304;11.896;2023-02-11T00:46:49;40.67;;;19.98;;
45344;SDS011;31078;48.304;11.896;2023-02-11T00:49:17;38.47;;;20.08;;
45344;SDS011;31078;48.304;11.896;2023-02-11T00:51:44;40.28;;;18.95;;
45344;SDS011;31078;48.304;11.896;2023-02-11T00:54:10;38.17;;;18.65;;
45344;SDS011;31078;48.304;11.896;2023-02-11T00:56:37;35.95;;;17.38;;
45344;SDS011;31078;48.304;11.896;2023-02-11T00:59:03;36.75;;;17.73;;
45344;SDS011;31078;48.304;11.896;2023-02-11T01:01:30;38.28;;;17.55;;
45344;SDS011;31078;48.304;11.896;2023-02-11T01:03:56;33.28;;;16.80;;
45344;SDS011;31078;48.304;11.896;2023-02-11T01:06:24;33.53;;;17.05;;
45344;SDS011;31078;48.304;11.896;2023-02-11T01:08:50;36.42;;;16.02;;
45344;SDS011;31078;48.304;11.896;2023-02-11T01:11:17;30.80;;;15.88;;
45344;SDS011;31078;48.304;11.896;2023-02-11T01:13:45;33.92;;;16.40;;
45344;SDS011;31078;48.304;11.896;2023-02-11T01:16:13;32.63;;;16.52;;
45344;SDS011;31078;48.304;11.896;2023-02-11T01:18:40;31.75;;;15.82;;
45344;SDS011;31078;48.304;11.896;2023-02-11T01:21:08;32.78;;;16.45;;
45344;SDS011;31078;48.304;11.896;2023-02-11T01:23:36;31.85;;;15.40;;
45344;SDS011;31078;48.304;11.896;2023-02-11T01:26:02;35.15;;;17.55;;
45344;SDS011;31078;48.304;11.896;2023-02-11T01:28:29;31.60;;;15.20;;
45344;SDS011;31078;48.304;11.896;2023-02-11T01:30:56;30.88;;;15.23;;
45344;SDS011;31078;48.304;11.896;2023-02-11T01:33:23;33.55;;;15.93;;
45344;SDS011;31078;48.304;11.896;2023-02-11T01:35:49;31.92;;;15.25;;
45344;SDS011;31078;48.304;11.896;2023-02-11T01:38:17;30.63;;;15.27;;
45344;SDS011;31078;48.304;11.896;2023-02-11T01:40:47;33.10;;;15.95;;
45344;SDS011;31078;48.304;11.896;2023-02-11T01:43:15;39.55;;;17.58;;
45344;SDS011;31078;48.304;11.896;2023-02-11T01:45:57;31.52;;;14.82;;
45344;SDS011;31078;48.304;11.896;2023-02-11T01:48:28;31.90;;;15.55;;
45344;SDS011;31078;48.304;11.896;2023-02-11T01:51:00;30.27;;;15.10;;
45344;SDS011;31078;48.304;11.896;2023-02-11T01:53:31;22.27;;;11.82;;
45344;SDS011;31078;48.304;11.896;2023-02-11T01:56:18;28.02;;;14.68;;
45344;SDS011;31078;48.304;11.896;2023-02-11T01:59:05;32.25;;;14.50;;
45344;SDS011;31078;48.304;11.896;2023-02-11T02:01:36;28.13;;;14.98;;
45344;SDS011;31078;48.304;11.896;2023-02-11T02:04:05;29.75;;;14.73;;
45344;SDS011;31078;48.304;11.896;2023-02-11T02:06:36;28.73;;;14.68;;
45344;SDS011;31078;48.304;11.896;2023-02-11T02:09:10;30.83;;;15.18;;
45344;SDS011;31078;48.304;11.896;2023-02-11T02:11:43;30.88;;;14.75;;
45344;SDS011;31078;48.304;11.896;2023-02-11T02:14:10;35.85;;;15.75;;
45344;SDS011;31078;48.304;11.896;2023-02-11T02:16:36;27.55;;;14.70;;
45344;SDS011;31078;48.304;11.896;2023-02-11T02:19:12;26.73;;;14.60;;
45344;SDS011;31078;48.304;11.896;2023-02-11T02:21:58;26.83;;;13.63;;
45344;SDS011;31078;48.304;11.896;2023-02-11T02:24:55;31.15;;;14.40;;
45344;SDS011;31078;48.304;11.896;2023-02-11T02:27:39;28.73;;;13.45;;
45344;SDS011;31078;48.304;11.896;2023-02-11T02:30:15;33.20;;;14.23;;
45344;SDS011;31078;48.304;11.896;2023-02-11T02:33:15;29.67;;;13.52;;
45344;SDS011;31078;48.304;11.896;2023-02-11T02:35:52;28.80;;;14.07;;
45344;SDS011;31078;48.304;11.896;2023-02-11T02:38:29;28.02;;;13.35;;
45344;SDS011;31078;48.304;11.896;2023-02-11T02:41:00;24.63;;;12.63;;
45344;SDS011;31078;48.304;11.896;2023-02-11T02:43:29;25.70;;;12.77;;
45344;SDS011;31078;48.304;11.896;2023-02-11T02:46:08;25.80;;;13.52;;
45344;SDS011;31078;48.304;11.896;2023-02-11T02:48:40;24.13;;;11.88;;
45344;SDS011;31078;48.304;11.896;2023-02-11T02:51:10;26.20;;;12.57;;
45344;SDS011;31078;48.304;11.896;2023-02-11T02:53:48;22.88;;;11.20;;
45344;SDS011;31078;48.304;11.896;2023-02-11T02:56:24;24.90;;;12.50;;
45344;SDS011;31078;48.304;11.896;2023-02-11T02:59:06;27.38;;;13.13;;
45344;SDS011;31078;48.304;11.896;2023-02-11T03:01:46;24.40;;;11.73;;
45344;SDS011;31078;48.304;11.896;2023-02-11T03:04:23;27.50;;;11.98;;
45344;SDS011;31078;48.304;11.896;2023-02-11T03:06:56;27.73;;;12.98;;
45344;SDS011;31078;48.304;11.896;2023-02-11T03:09:35;24.95;;;12.10;;
45344;SDS011;31078;48.304;11.896;2023-02-11T03:12:07;27.27;;;12.43;;
45344;SDS011;31078;48.304;11.896;2023-02-11T03:14:37;24.55;;;12.10;;
45344;SDS011;31078;48.304;11.896;2023-02-11T03:17:05;22.48;;;11.60;;
45344;SDS011;31078;48.304;11.896;2023-02-11T03:19:35;24.63;;;12.20;;
45344;SDS011;31078;48.304;11.896;2023-02-11T03:22:06;26.13;;;11.43;;
45344;SDS011;31078;48.304;11.896;2023-02-11T03:24:37;27.33;;;12.10;;
45344;SDS011;31078;48.304;11.896;2023-02-11T03:27:08;24.75;;;12.30;;
45344;SDS011;31078;48.304;11.896;2023-02-11T03:29:42;24.55;;;11.85;;
45344;SDS011;31078;48.304;11.896;2023-02-11T03:32:16;24.55;;;12.18;;
45344;SDS011;31078;48.304;11.896;2023-02-11T03:34:51;25.75;;;11.95;;
45344;SDS011;31078;48.304;11.896;2023-02-11T03:37:22;25.42;;;12.05;;
45344;SDS011;31078;48.304;11.896;2023-02-11T03:39:53;22.17;;;11.35;;
45344;SDS011;31078;48.304;11.896;2023-02-11T03:42:25;24.88;;;11.63;;
45344;SDS011;31078;48.304;11.896;2023-02-11T03:44:57;25.55;;;13.02;;
45344;SDS011;31078;48.304;11.896;2023-02-11T03:47:28;25.30;;;11.50;;
45344;SDS011;31078;48.304;11.896;2023-02-11T03:50:01;22.52;;;11.27;;
45344;SDS011;31078;48.304;11.896;2023-02-11T03:52:31;21.80;;;11.15;;
45344;SDS011;31078;48.304;11.896;2023-02-11T03:54:59;24.52;;;11.95;;
45344;SDS011;31078;48.304;11.896;2023-02-11T03:57:31;28.15;;;12.52;;
45344;SDS011;31078;48.304;11.896;2023-02-11T03:59:58;22.52;;;11.18;;
45344;SDS011;31078;48.304;11.896;2023-02-11T04:02:26;23.48;;;11.32;;
45344;SDS011;31078;48.304;11.896;2023-02-11T04:04:54;25.90;;;12.25;;
45344;SDS011;31078;48.304;11.896;2023-02-11T04:07:22;22.83;;;11.02;;
45344;SDS011;31078;48.304;11.896;2023-02-11T04:09:49;23.60;;;11.20;;
45344;SDS011;31078;48.304;11.896;2023-02-11T04:12:16;26.75;;;11.25;;
45344;SDS011;31078;48.304;11.896;2023-02-11T04:14:42;23.77;;;10.63;;
45344;SDS011;31078;48.304;11.896;2023-02-11T04:17:09;21.92;;;11.32;;
45344;SDS011;31078;48.304;11.896;2023-02-11T04:19:36;21.92;;;11.07;;
45344;SDS011;31078;48.304;11.896;2023-02-11T04:22:02;20.67;;;10.85;;
45344;SDS011;31078;48.304;11.896;2023-02-11T04:24:31;21.75;;;10.85;;
45344;SDS011;31078;48.304;11.896;2023-02-11T04:26:57;20.05;;;10.70;;
45344;SDS011;31078;48.304;11.896;2023-02-11T04:29:24;18.25;;;9.43;;
45344;SDS011;31078;48.304;11.896;2023-02-11T04:31:50;18.88;;;8.88;;
45344;SDS011;31078;48.304;11.896;2023-02-11T04:34:17;18.85;;;8.93;;
45344;SDS011;31078;48.304;11.896;2023-02-11T04:36:43;17.98;;;9.07;;
45344;SDS011;31078;48.304;11.896;2023-02-11T04:39:10;18.15;;;9.25;;
45344;SDS011;31078;48.304;11.896;2023-02-11T04:41:38;16.13;;;8.60;;
45344;SDS011;31078;48.304;11.896;2023-02-11T04:44:04;17.05;;;9.48;;
45344;SDS011;31078;48.304;11.896;2023-02-11T04:46:31;18.42;;;8.95;;
45344;SDS011;31078;48.304;11.896;2023-02-11T04:48:57;17.73;;;8.32;;
45344;SDS011;31078;48.304;11.896;2023-02-11T04:51:24;18.98;;;8.77;;
45344;SDS011;31078;48.304;11.896;2023-02-11T04:53:50;18.38;;;9.38;;
45344;SDS011;31078;48.304;11.896;2023-02-11T04:56:17;17.80;;;9.35;;
45344;SDS011;31078;48.304;11.896;2023-02-11T04:58:45;21.88;;;9.70;;
45344;SDS011;31078;48.304;11.896;2023-02-11T05:01:12;15.65;;;8.68;;
45344;SDS011;31078;48.304;11.896;2023-02-11T05:03:40;17.98;;;9.75;;
45344;SDS011;31078;48.304;11.896;2023-02-11T05:06:08;19.85;;;9.75;;
45344;SDS011;31078;48.304;11.896;2023-02-11T05:08:35;21.77;;;11.10;;
45344;SDS011;31078;48.304;11.896;2023-02-11T05:11:01;21.45;;;10.73;;
45344;SDS011;31078;48.304;11.896;2023-02-11T05:13:28;20.40;;;9.98;;
45344;SDS011;31078;48.304;11.896;2023-02-11T05:15:57;17.73;;;8.93;;
45344;SDS011;31078;48.304;11.896;2023-02-11T05:18:23;20.00;;;9.27;;
45344;SDS011;31078;48.304;11.896;2023-02-11T05:20:50;20.45;;;9.95;;
45344;SDS011;31078;48.304;11.896;2023-02-11T05:23:16;21.13;;;9.73;;
45344;SDS011;31078;48.304;11.896;2023-02-11T05:25:42;19.17;;;9.60;;
45344;SDS011;31078;48.304;11.896;2023-02-11T05:28:09;19.08;;;9.63;;
45344;SDS011;31078;48.304;11.896;2023-02-11T05:30:35;17.35;;;8.68;;
45344;SDS011;31078;48.304;11.896;2023-02-11T05:33:03;19.45;;;8.50;;
45344;SDS011;31078;48.304;11.896;2023-02-11T05:35:30;19.63;;;8.77;;
45344;SDS011;31078;48.304;11.896;2023-02-11T05:37:56;17.15;;;7.97;;
45344;SDS011;31078;48.304;11.896;2023-02-11T05:40:23;15.65;;;8.02;;
45344;SDS011;31078;48.304;11.896;2023-02-11T05:42:49;17.73;;;8.85;;
45344;SDS011;31078;48.304;11.896;2023-02-11T05:45:16;16.48;;;8.35;;
45344;SDS011;31078;48.304;11.896;2023-02-11T05:47:42;18.40;;;8.15;;
45344;SDS011;31078;48.304;11.896;2023-02-11T05:50:10;16.70;;;8.13;;
45344;SDS011;31078;48.304;11.896;2023-02-11T05:52:37;16.92;;;8.30;;
45344;SDS011;31078;48.304;11.896;2023-02-11T05:55:03;16.92;;;8.00;;
45344;SDS011;31078;48.304;11.896;2023-02-11T05:57:30;17.67;;;8.07;;
45344;SDS011;31078;48.304;11.896;2023-02-11T05:59:57;17.10;;;8.38;;
45344;SDS011;31078;48.304;11.896;2023-02-11T06:02:23;16.88;;;8.18;;
45344;SDS011;31078;48.304;11.896;2023-02-11T06:04:50;17.70;;;8.63;;
45344;SDS011;31078;48.304;11.896;2023-02-11T06:07:18;16.88;;;9.02;;
45344;SDS011;31078;48.304;11.896;2023-02-11T06:09:44;19.30;;;8.25;;
45344;SDS011;31078;48.304;11.896;2023-02-11T06:12:11;18.05;;;8.13;;
45344;SDS011;31078;48.304;11.896;2023-02-11T06:14:37;13.55;;;7.00;;
45344;SDS011;31078;48.304;11.896;2023-02-11T06:17:04;16.48;;;7.47;;
45344;SDS011;31078;48.304;11.896;2023-02-11T06:19:30;17.80;;;7.72;;
45344;SDS011;31078;48.304;11.896;2023-02-11T06:21:57;17.90;;;8.32;;
45344;SDS011;31078;48.304;11.896;2023-02-11T06:24:25;17.20;;;8.10;;
45344;SDS011;31078;48.304;11.896;2023-02-11T06:26:51;16.17;;;8.30;;
45344;SDS011;31078;48.304;11.896;2023-02-11T06:29:18;16.20;;;8.63;;
45344;SDS011;31078;48.304;11.896;2023-02-11T06:31:44;17.95;;;8.38;;
45344;SDS011;31078;48.304;11.896;2023-02-11T06:34:11;15.02;;;8.15;;
45344;SDS011;31078;48.304;11.896;2023-02-11T06:36:37;15.02;;;8.57;;
45344;SDS011;31078;48.304;11.896;2023-02-11T06:39:05;14.75;;;7.65;;
45344;SDS011;31078;48.304;11.896;2023-02-11T06:41:33;15.40;;;8.32;;
45344;SDS011;31078;48.304;11.896;2023-02-11T06:43:59;15.80;;;8.48;;
45344;SDS011;31078;48.304;11.896;2023-02-11T06:46:26;15.40;;;7.68;;
45344;SDS011;31078;48.304;11.896;2023-02-11T06:48:52;14.68;;;7.55;;
45344;SDS011;31078;48.304;11.896;2023-02-11T06:51:19;16.95;;;7.80;;
45344;SDS011;31078;48.304;11.896;2023-02-11T06:53:46;16.65;;;7.90;;
45344;SDS011;31078;48.304;11.896;2023-02-11T06:56:13;15.85;;;7.95;;
45344;SDS011;31078;48.304;11.896;2023-02-11T06:58:42;18.63;;;8.80;;
45344;SDS011;31078;48.304;11.896;2023-02-11T07:01:09;19.55;;;8.35;;
45344;SDS011;31078;48.304;11.896;2023-02-11T07:03:38;16.88;;;7.80;;
45344;SDS011;31078;48.304;11.896;2023-02-11T07:06:10;17.10;;;8.55;;
45344;SDS011;31078;48.304;11.896;2023-02-11T07:08:38;19.77;;;8.30;;
45344;SDS011;31078;48.304;11.896;2023-02-11T07:11:07;16.77;;;8.35;;
45344;SDS011;31078;48.304;11.896;2023-02-11T07:13:35;18.67;;;9.13;;
45344;SDS011;31078;48.304;11.896;2023-02-11T07:16:04;19.80;;;8.60;;
45344;SDS011;31078;48.304;11.896;2023-02-11T07:18:31;17.25;;;7.90;;
45344;SDS011;31078;48.304;11.896;2023-02-11T07:20:57;21.02;;;8.55;;
45344;SDS011;31078;48.304;11.896;2023-02-11T07:23:24;16.65;;;8.25;;
45344;SDS011;31078;48.304;11.896;2023-02-11T07:25:51;16.35;;;9.00;;
45344;SDS011;31078;48.304;11.896;2023-02-11T07:28:17;16.27;;;8.77;;
45344;SDS011;31078;48.304;11.896;2023-02-11T07:30:44;14.45;;;7.65;;
45344;SDS011;31078;48.304;11.896;2023-02-11T07:33:12;18.85;;;7.93;;
45344;SDS011;31078;48.304;11.896;2023-02-11T07:35:38;19.60;;;9.02;;
45344;SDS011;31078;48.304;11.896;2023-02-11T07:38:05;16.45;;;8.48;;
45344;SDS011;31078;48.304;11.896;2023-02-11T07:40:31;16.17;;;8.30;;
45344;SDS011;31078;48.304;11.896;2023-02-11T07:42:59;21.95;;;9.55;;
45344;SDS011;31078;48.304;11.896;2023-02-11T07:45:26;20.65;;;8.80;;
45344;SDS011;31078;48.304;11.896;2023-02-11T07:47:52;17.48;;;7.97;;
45344;SDS011;31078;48.304;11.896;2023-02-11T07:50:20;16.63;;;8.60;;
45344;SDS011;31078;48.304;11.896;2023-02-11T07:52:46;15.15;;;8.77;;
45344;SDS011;31078;48.304;11.896;2023-02-11T07:55:13;16.35;;;8.50;;
45344;SDS011;31078;48.304;11.896;2023-02-11T07:57:40;15.15;;;8.27;;
45344;SDS011;31078;48.304;11.896;2023-02-11T08:00:06;14.55;;;8.23;;
45344;SDS011;31078;48.304;11.896;2023-02-11T08:02:34;22.20;;;9.07;;
45344;SDS011;31078;48.304;11.896;2023-02-11T08:05:00;17.58;;;8.70;;
45344;SDS011;31078;48.304;11.896;2023-02-11T08:07:28;19.80;;;8.75;;
45344;SDS011;31078;48.304;11.896;2023-02-11T08:09:54;16.02;;;8.65;;
45344;SDS011;31078;48.304;11.896;2023-02-11T08:12:21;18.25;;;8.93;;
45344;SDS011;31078;48.304;11.896;2023-02-11T08:14:47;16.65;;;8.10;;
45344;SDS011;31078;48.304;11.896;2023-02-11T08:17:14;15.63;;;7.75;;
45344;SDS011;31078;48.304;11.896;2023-02-11T08:19:41;15.85;;;8.52;;
45344;SDS011;31078;48.304;11.896;2023-02-11T08:22:08;17.85;;;8.70;;
45344;SDS011;31078;48.304;11.896;2023-02-11T08:24:35;18.60;;;8.52;;
45344;SDS011;31078;48.304;11.896;2023-02-11T08:27:02;15.93;;;8.57;;
45344;SDS011;31078;48.304;11.896;2023-02-11T08:29:28;18.40;;;8.85;;
45344;SDS011;31078;48.304;11.896;2023-02-11T08:31:55;16.08;;;8.57;;
45344;SDS011;31078;48.304;11.896;2023-02-11T08:34:21;15.93;;;8.80;;
45344;SDS011;31078;48.304;11.896;2023-02-11T08:36:48;16.20;;;8.75;;
45344;SDS011;31078;48.304;11.896;2023-02-11T08:39:15;21.33;;;8.80;;
45344;SDS011;31078;48.304;11.896;2023-02-11T08:41:45;15.05;;;8.07;;
45344;SDS011;31078;48.304;11.896;2023-02-11T08:44:12;16.67;;;8.57;;
45344;SDS011;31078;48.304;11.896;2023-02-11T08:46:39;16.42;;;8.40;;
45344;SDS011;31078;48.304;11.896;2023-02-11T08:49:05;17.48;;;8.88;;
45344;SDS011;31078;48.304;11.896;2023-02-11T08:51:32;15.77;;;8.48;;
45344;SDS011;31078;48.304;11.896;2023-02-11T08:53:58;18.45;;;8.95;;
45344;SDS011;31078;48.304;11.896;2023-02-11T08:56:26;18.52;;;8.85;;
45344;SDS011;31078;48.304;11.896;2023-02-11T08:58:56;17.50;;;9.27;;
45344;SDS011;31078;48.304;11.896;2023-02-11T09:01:23;16.30;;;8.98;;
45344;SDS011;31078;48.304;11.896;2023-02-11T09:03:52;17.52;;;9.35;;
45344;SDS011;31078;48.304;11.896;2023-02-11T09:06:19;18.80;;;8.63;;
45344;SDS011;31078;48.304;11.896;2023-02-11T09:08:47;21.75;;;9.10;;
45344;SDS011;31078;48.304;11.896;2023-02-11T09:11:15;22.05;;;9.52;;
45344;SDS011;31078;48.304;11.896;2023-02-11T09:13:42;17.80;;;9.05;;
45344;SDS011;31078;48.304;11.896;2023-02-11T09:16:15;21.55;;;9.30;;
45344;SDS011;31078;48.304;11.896;2023-02-11T09:18:44;22.75;;;10.40;;
45344;SDS011;31078;48.304;11.896;2023-02-11T09:21:12;20.83;;;9.82;;
45344;SDS011;31078;48.304;11.896;2023-02-11T09:23:39;17.63;;;9.98;;
45344;SDS011;31078;48.304;11.896;2023-02-11T09:26:09;23.08;;;9.77;;
45344;SDS011;31078;48.304;11.896;2023-02-11T09:28:38;18.48;;;9.82;;
45344;SDS011;31078;48.304;11.896;2023-02-11T09:31:05;23.20;;;9.35;;
45344;SDS011;31078;48.304;11.896;2023-02-11T09:33:34;18.20;;;9.80;;
45344;SDS011;31078;48.304;11.896;2023-02-11T09:36:01;20.13;;;9.90;;
45344;SDS011;31078;48.304;11.896;2023-02-11T09:38:28;19.65;;;9.85;;
45344;SDS011;31078;48.304;11.896;2023-02-11T09:40:54;21.60;;;11.13;;
45344;SDS011;31078;48.304;11.896;2023-02-11T09:43:21;19.10;;;9.52;;
45344;SDS011;31078;48.304;11.896;2023-02-11T09:45:49;23.20;;;10.38;;
45344;SDS011;31078;48.304;11.896;2023-02-11T09:48:20;24.27;;;9.95;;
45344;SDS011;31078;48.304;11.896;2023-02-11T09:50:49;23.80;;;9.63;;
45344;SDS011;31078;48.304;11.896;2023-02-11T09:53:21;19.50;;;9.80;;
45344;SDS011;31078;48.304;11.896;2023-02-11T09:55:51;22.63;;;10.65;;
45344;SDS011;31078;48.304;11.896;2023-02-11T09:58:23;18.17;;;10.02;;
45344;SDS011;31078;48.304;11.896;2023-02-11T10:00:52;21.02;;;10.43;;
45344;SDS011;31078;48.304;11.896;2023-02-11T10:06:26;29.05;;;10.50;;
45344;SDS011;31078;48.304;11.896;2023-02-11T10:09:10;22.08;;;10.55;;
45344;SDS011;31078;48.304;11.896;2023-02-11T10:11:55;25.33;;;11.02;;
45344;SDS011;31078;48.304;11.896;2023-02-11T10:14:41;23.25;;;10.75;;
45344;SDS011;31078;48.304;11.896;2023-02-11T10:17:20;19.70;;;10.35;;
45344;SDS011;31078;48.304;11.896;2023-02-11T10:19:58;22.25;;;11.80;;
45344;SDS011;31078;48.304;11.896;2023-02-11T10:22:39;21.73;;;11.43;;
45344;SDS011;31078;48.304;11.896;2023-02-11T10:27:47;23.80;;;11.43;;
45344;SDS011;31078;48.304;11.896;2023-02-11T10:30:18;26.10;;;12.50;;
45344;SDS011;31078;48.304;11.896;2023-02-11T10:32:53;25.20;;;11.73;;
45344;SDS011;31078;48.304;11.896;2023-02-11T10:37:53;32.58;;;12.80;;
45344;SDS011;31078;48.304;11.896;2023-02-11T10:40:21;22.80;;;13.23;;
45344;SDS011;31078;48.304;11.896;2023-02-11T10:42:50;25.95;;;11.75;;
45344;SDS011;31078;48.304;11.896;2023-02-11T10:45:31;29.10;;;12.90;;
45344;SDS011;31078;48.304;11.896;2023-02-11T10:47:58;22.88;;;12.55;;
45344;SDS011;31078;48.304;11.896;2023-02-11T10:50:26;28.27;;;12.75;;
45344;SDS011;31078;48.304;11.896;2023-02-11T10:53:08;31.88;;;14.07;;
45344;SDS011;31078;48.304;11.896;2023-02-11T10:55:48;27.63;;;13.15;;
45344;SDS011;31078;48.304;11.896;2023-02-11T10:58:20;27.27;;;13.23;;
45344;SDS011;31078;48.304;11.896;2023-02-11T11:00:51;25.05;;;13.90;;
45344;SDS011;31078;48.304;11.896;2023-02-11T11:03:19;24.75;;;12.85;;
45344;SDS011;31078;48.304;11.896;2023-02-11T11:05:48;28.30;;;13.63;;
45344;SDS011;31078;48.304;11.896;2023-02-11T11:08:18;26.08;;;13.48;;
45344;SDS011;31078;48.304;11.896;2023-02-11T11:10:45;24.83;;;13.05;;
45344;SDS011;31078;48.304;11.896;2023-02-11T11:13:23;28.13;;;14.23;;
45344;SDS011;31078;48.304;11.896;2023-02-11T11:18:47;27.20;;;14.15;;
45344;SDS011;31078;48.304;11.896;2023-02-11T11:21:17;29.02;;;14.35;;
45344;SDS011;31078;48.304;11.896;2023-02-11T11:23:47;27.30;;;13.23;;
45344;SDS011;31078;48.304;11.896;2023-02-11T11:26:16;33.30;;;14.07;;
45344;SDS011;31078;48.304;11.896;2023-02-11T11:28:49;28.02;;;13.70;;
45344;SDS011;31078;48.304;11.896;2023-02-11T11:31:19;30.15;;;13.25;;
45344;SDS011;31078;48.304;11.896;2023-02-11T11:33:50;28.95;;;13.65;;
45344;SDS011;31078;48.304;11.896;2023-02-11T11:36:20;32.47;;;14.20;;
45344;SDS011;31078;48.304;11.896;2023-02-11T11:38:50;36.03;;;13.70;;
45344;SDS011;31078;48.304;11.896;2023-02-11T11:41:21;28.85;;;14.13;;
45344;SDS011;31078;48.304;11.896;2023-02-11T11:43:53;32.58;;;15.50;;
45344;SDS011;31078;48.304;11.896;2023-02-11T11:46:22;27.83;;;13.90;;
45344;SDS011;31078;48.304;11.896;2023-02-11T11:48:50;26.15;;;13.00;;
45344;SDS011;31078;48.304;11.896;2023-02-11T11:51:20;30.58;;;14.35;;
45344;SDS011;31078;48.304;11.896;2023-02-11T11:53:52;30.15;;;14.43;;
45344;SDS011;31078;48.304;11.896;2023-02-11T11:56:24;30.23;;;14.10;;
45344;SDS011;31078;48.304;11.896;2023-02-11T11:58:54;33.22;;;14.82;;
45344;SDS011;31078;48.304;11.896;2023-02-11T12:01:27;38.60;;;14.63;;
45344;SDS011;31078;48.304;11.896;2023-02-11T12:04:10;32.97;;;14.35;;
45344;SDS011;31078;48.304;11.896;2023-02-11T12:06:56;28.27;;;14.52;;
45344;SDS011;31078;48.304;11.896;2023-02-11T12:09:37;31.13;;;14.65;;
45344;SDS011;31078;48.304;11.896;2023-02-11T12:12:16;29.73;;;14.88;;
45344;SDS011;31078;48.304;11.896;2023-02-11T12:14:58;30.17;;;14.43;;
45344;SDS011;31078;48.304;11.896;2023-02-11T12:17:42;33.95;;;15.05;;
45344;SDS011;31078;48.304;11.896;2023-02-11T12:20:24;28.40;;;14.88;;
45344;SDS011;31078;48.304;11.896;2023-02-11T12:23:01;30.98;;;15.18;;
45344;SDS011;31078;48.304;11.896;2023-02-11T12:25:42;27.88;;;14.32;;
45344;SDS011;31078;48.304;11.896;2023-02-11T12:28:18;29.65;;;15.00;;
45344;SDS011;31078;48.304;11.896;2023-02-11T12:31:06;30.58;;;14.38;;
45344;SDS011;31078;48.304;11.896;2023-02-11T12:33:54;28.63;;;14.20;;
45344;SDS011;31078;48.304;11.896;2023-02-11T12:36:42;28.10;;;13.93;;
45344;SDS011;31078;48.304;11.896;2023-02-11T12:39:21;28.73;;;14.93;;
45344;SDS011;31078;48.304;11.896;2023-02-11T12:42:03;32.10;;;14.65;;
45344;SDS011;31078;48.304;11.896;2023-02-11T12:45:04;27.23;;;13.73;;
45344;SDS011;31078;48.304;11.896;2023-02-11T12:47:47;28.92;;;14.25;;
45344;SDS011;31078;48.304;11.896;2023-02-11T12:50:29;27.80;;;13.80;;
45344;SDS011;31078;48.304;11.896;2023-02-11T12:53:07;27.05;;;13.57;;
45344;SDS011;31078;48.304;11.896;2023-02-11T12:55:45;35.23;;;15.53;;
45344;SDS011;31078;48.304;11.896;2023-02-11T12:58:19;32.50;;;14.15;;
45344;SDS011;31078;48.304;11.896;2023-02-11T13:00:50;30.88;;;14.02;;
45344;SDS011;31078;48.304;11.896;2023-02-11T13:03:20;28.13;;;14.32;;
45344;SDS011;31078;48.304;11.896;2023-02-11T13:05:51;28.25;;;14.65;;
45344;SDS011;31078;48.304;11.896;2023-02-11T13:08:21;32.00;;;15.30;;
45344;SDS011;31078;48.304;11.896;2023-02-11T13:10:53;26.65;;;13.55;;
45344;SDS011;31078;48.304;11.896;2023-02-11T13:13:24;26.05;;;14.43;;
45344;SDS011;31078;48.304;11.896;2023-02-11T13:15:55;28.88;;;15.35;;
45344;SDS011;31078;48.304;11.896;2023-02-11T13:18:39;23.45;;;11.23;;
45344;SDS011;31078;48.304;11.896;2023-02-11T13:21:25;28.40;;;14.73;;
45344;SDS011;31078;48.304;11.896;2023-02-11T13:24:03;32.05;;;17.45;;
45344;SDS011;31078;48.304;11.896;2023-02-11T13:26:41;27.73;;;15.10;;
45344;SDS011;31078;48.304;11.896;2023-02-11T13:29:21;26.05;;;14.05;;
45344;SDS011;31078;48.304;11.896;2023-02-11T13:31:54;29.73;;;14.85;;
45344;SDS011;31078;48.304;11.896;2023-02-11T13:34:25;27.42;;;14.60;;
45344;SDS011;31078;48.304;11.896;2023-02-11T13:37:18;31.52;;;14.38;;
45344;SDS011;31078;48.304;11.896;2023-02-11T13:39:54;29.85;;;15.13;;
45344;SDS011;31078;48.304;11.896;2023-02-11T13:42:22;27.27;;;13.35;;
45344;SDS011;31078;48.304;11.896;2023-02-11T13:44:50;30.60;;;15.20;;
45344;SDS011;31078;48.304;11.896;2023-02-11T13:47:21;23.08;;;13.18;;
45344;SDS011;31078;48.304;11.896;2023-02-11T13:49:52;26.38;;;15.15;;
45344;SDS011;31078;48.304;11.896;2023-02-11T13:52:21;28.67;;;13.95;;
45344;SDS011;31078;48.304;11.896;2023-02-11T13:54:51;24.05;;;13.40;;
45344;SDS011;31078;48.304;11.896;2023-02-11T13:57:33;26.05;;;13.95;;
45344;SDS011;31078;48.304;11.896;2023-02-11T14:00:05;24.58;;;12.63;;
45344;SDS011;31078;48.304;11.896;2023-02-11T14:06:10;24.58;;;13.23;;
45344;SDS011;31078;48.304;11.896;2023-02-11T14:09:05;23.60;;;12.90;;
45344;SDS011;31078;48.304;11.896;2023-02-11T14:11:42;25.75;;;12.63;;
45344;SDS011;31078;48.304;11.896;2023-02-11T14:14:15;23.08;;;12.68;;
45344;SDS011;31078;48.304;11.896;2023-02-11T14:19:56;25.15;;;13.27;;
45344;SDS011;31078;48.304;11.896;2023-02-11T14:22:24;28.45;;;13.90;;
45344;SDS011;31078;48.304;11.896;2023-02-11T14:24:54;24.52;;;13.80;;
45344;SDS011;31078;48.304;11.896;2023-02-11T14:27:30;22.42;;;12.35;;
45344;SDS011;31078;48.304;11.896;2023-02-11T14:30:08;26.25;;;13.05;;
45344;SDS011;31078;48.304;11.896;2023-02-11T14:32:47;22.17;;;12.65;;
45344;SDS011;31078;48.304;11.896;2023-02-11T14:35:27;23.77;;;12.60;;
45344;SDS011;31078;48.304;11.896;2023-02-11T14:38:02;25.05;;;13.00;;
45344;SDS011;31078;48.304;11.896;2023-02-11T14:40:38;28.92;;;14.00;;
45344;SDS011;31078;48.304;11.896;2023-02-11T14:43:11;24.05;;;12.68;;
45344;SDS011;31078;48.304;11.896;2023-02-11T14:45:43;26.83;;;12.10;;
45344;SDS011;31078;48.304;11.896;2023-02-11T14:48:17;23.70;;;12.23;;
45344;SDS011;31078;48.304;11.896;2023-02-11T14:50:45;22.65;;;12.50;;